createdAt,value
2022-10-20T00:01:21.967Z,9.50
2022-10-20T00:03:50.171Z,8.88
2022-10-20T00:06:23.277Z,9.52
2022-10-20T00:08:51.590Z,10.00
2022-10-20T00:11:22.020Z,9.20
2022-10-20T00:13:52.588Z,9.13
2022-10-20T00:16:21.365Z,9.35
2022-10-20T00:18:48.913Z,8.18
2022-10-20T00:21:22.290Z,8.30
2022-10-20T00:23:50.548Z,9.15
2022-10-20T00:26:26.761Z,8.95
2022-10-20T00:28:55.760Z,8.80
2022-10-20T00:31:24.944Z,8.93
2022-10-20T00:33:53.375Z,7.97
2022-10-20T00:36:22.732Z,10.32
2022-10-20T00:38:51.513Z,11.95
2022-10-20T00:41:21.608Z,11.38
2022-10-20T00:43:53.761Z,8.95
2022-10-20T00:46:25.602Z,8.63
2022-10-20T00:48:57.138Z,9.60
2022-10-20T00:51:29.135Z,9.95
2022-10-20T00:54:09.131Z,9.73
2022-10-20T00:56:40.707Z,11.93
2022-10-20T00:59:09.751Z,12.30
2022-10-20T01:01:40.164Z,11.95
2022-10-20T01:06:35.690Z,9.18
2022-10-20T01:09:06.161Z,9.82
2022-10-20T01:14:43.413Z,9.30
2022-10-20T01:17:36.385Z,9.05
2022-10-20T01:20:23.572Z,9.02
2022-10-20T01:22:57.264Z,9.43
2022-10-20T01:25:55.950Z,9.93
2022-10-20T01:28:45.489Z,9.20
2022-10-20T01:31:24.147Z,9.85
2022-10-20T01:34:09.021Z,8.57
2022-10-20T01:37:19.742Z,10.38
2022-10-20T01:40:25.343Z,10.68
2022-10-20T01:42:55.257Z,8.82
2022-10-20T01:45:26.962Z,8.98
2022-10-20T01:47:55.225Z,11.00
2022-10-20T01:50:25.205Z,9.77
2022-10-20T01:52:58.099Z,10.77
2022-10-20T01:55:26.054Z,11.82
2022-10-20T01:58:12.557Z,11.50
2022-10-20T02:00:41.037Z,10.77
2022-10-20T02:03:22.321Z,12.40
2022-10-20T02:05:49.901Z,10.60
2022-10-20T02:08:45.368Z,9.63
2022-10-20T02:11:24.746Z,11.02
2022-10-20T02:13:56.930Z,9.27
2022-10-20T02:16:30.781Z,11.65
2022-10-20T02:21:32.381Z,10.02
2022-10-20T02:24:06.133Z,9.88
2022-10-20T02:26:39.210Z,9.65
2022-10-20T02:29:16.947Z,9.73
2022-10-20T02:31:45.794Z,11.70
2022-10-20T02:34:16.790Z,11.35
2022-10-20T02:36:45.145Z,10.85
2022-10-20T02:39:13.144Z,11.88
2022-10-20T02:41:40.858Z,10.13
2022-10-20T02:44:08.744Z,10.80
2022-10-20T02:46:36.485Z,10.30
2022-10-20T02:49:04.496Z,10.27
2022-10-20T02:51:32.306Z,10.18
2022-10-20T02:53:59.974Z,10.43
2022-10-20T02:56:30.295Z,10.98
2022-10-20T02:58:59.128Z,10.07
2022-10-20T03:01:27.150Z,9.45
2022-10-20T03:04:00.038Z,10.75
2022-10-20T03:06:27.839Z,10.57
2022-10-20T03:08:56.253Z,10.25
2022-10-20T03:11:25.650Z,10.30
2022-10-20T03:13:53.262Z,11.82
2022-10-20T03:16:21.424Z,10.15
2022-10-20T03:18:49.255Z,12.52
2022-10-20T03:21:16.985Z,11.18
2022-10-20T03:23:44.621Z,9.45
2022-10-20T03:26:13.085Z,11.98
2022-10-20T03:28:41.321Z,12.43
2022-10-20T03:31:09.315Z,12.48
2022-10-20T03:33:37.386Z,11.02
2022-10-20T03:36:06.554Z,12.23
2022-10-20T03:38:34.426Z,14.05
2022-10-20T03:43:30.135Z,12.70
2022-10-20T03:46:06.331Z,11.40
2022-10-20T03:48:34.892Z,12.13
2022-10-20T03:51:03.419Z,11.00
2022-10-20T03:53:31.933Z,12.90
2022-10-20T03:55:59.891Z,12.50
2022-10-20T03:58:27.838Z,13.13
2022-10-20T04:00:55.648Z,12.77
2022-10-20T04:03:23.538Z,10.07
2022-10-20T04:05:51.230Z,12.38
2022-10-20T04:08:19.123Z,10.80
2022-10-20T04:10:46.797Z,13.57
2022-10-20T04:13:14.507Z,13.25
2022-10-20T04:15:42.181Z,12.77
2022-10-20T04:18:10.023Z,14.57
2022-10-20T04:20:40.643Z,14.85
2022-10-20T04:23:11.646Z,16.98
2022-10-20T04:25:46.179Z,14.20
2022-10-20T04:28:18.265Z,13.27
2022-10-20T04:30:47.227Z,12.90
2022-10-20T04:33:14.941Z,12.70
2022-10-20T04:35:43.193Z,14.85
2022-10-20T04:38:10.998Z,12.75
2022-10-20T04:40:39.023Z,12.93
2022-10-20T04:43:06.770Z,13.07
2022-10-20T04:45:34.384Z,13.23
2022-10-20T04:48:06.641Z,11.93
2022-10-20T04:50:35.162Z,14.77
2022-10-20T04:53:09.683Z,11.98
2022-10-20T04:55:37.739Z,12.32
2022-10-20T04:58:05.414Z,12.95
2022-10-20T05:00:33.439Z,14.30
2022-10-20T05:03:01.504Z,14.25
2022-10-20T05:05:30.432Z,13.30
2022-10-20T05:07:58.106Z,12.32
2022-10-20T05:10:26.014Z,14.68
2022-10-20T05:12:53.814Z,10.90
2022-10-20T05:15:21.614Z,15.63
2022-10-20T05:17:49.383Z,14.27
2022-10-20T05:20:17.063Z,15.05
2022-10-20T05:22:45.033Z,13.82
2022-10-20T05:25:35.005Z,14.38
2022-10-20T05:28:01.269Z,13.15
2022-10-20T05:30:29.039Z,13.10
2022-10-20T05:32:57.670Z,14.52
2022-10-20T05:35:25.837Z,19.63
2022-10-20T05:37:53.855Z,19.02
2022-10-20T05:40:22.613Z,23.92
2022-10-20T05:42:51.126Z,22.42
2022-10-20T05:45:19.570Z,17.60
2022-10-20T05:47:47.235Z,14.27
2022-10-20T05:50:15.021Z,14.60
2022-10-20T05:52:43.671Z,15.02
2022-10-20T05:55:12.072Z,14.30
2022-10-20T05:57:40.581Z,14.02
2022-10-20T06:00:10.096Z,14.88
2022-10-20T06:02:41.939Z,13.68
2022-10-20T06:05:09.927Z,12.90
2022-10-20T06:07:37.710Z,15.73
2022-10-20T06:10:05.892Z,14.10
2022-10-20T06:12:36.236Z,14.48
2022-10-20T06:15:05.233Z,14.88
2022-10-20T06:17:33.543Z,13.73
2022-10-20T06:20:01.225Z,12.75
2022-10-20T06:22:29.316Z,11.73
2022-10-20T06:24:57.763Z,11.30
2022-10-20T06:27:26.004Z,11.95
2022-10-20T06:29:55.399Z,35.38
2022-10-20T06:32:23.362Z,17.42
2022-10-20T06:34:51.322Z,17.52
2022-10-20T06:37:19.858Z,16.35
2022-10-20T06:39:47.588Z,17.40
2022-10-20T06:42:15.074Z,15.65
2022-10-20T06:44:46.120Z,19.15
2022-10-20T06:47:14.712Z,20.33
2022-10-20T06:49:42.673Z,24.80
2022-10-20T06:54:44.319Z,18.70
2022-10-20T06:57:12.211Z,18.55
2022-10-20T06:59:40.064Z,18.48
2022-10-20T07:02:12.825Z,18.23
2022-10-20T07:04:40.978Z,19.90
2022-10-20T07:07:08.634Z,15.48
2022-10-20T07:09:37.226Z,17.35
2022-10-20T07:12:05.879Z,15.98
2022-10-20T07:14:37.475Z,15.07
2022-10-20T07:17:05.162Z,14.88
2022-10-20T07:19:32.835Z,14.05
2022-10-20T07:22:00.580Z,14.18
2022-10-20T07:24:29.336Z,18.58
2022-10-20T07:26:57.285Z,14.65
2022-10-20T07:29:24.977Z,18.58
2022-10-20T07:31:52.829Z,17.02
2022-10-20T07:34:26.722Z,15.05
2022-10-20T07:36:56.792Z,15.57
2022-10-20T07:39:25.085Z,14.48
2022-10-20T07:41:53.344Z,14.10
2022-10-20T07:44:23.663Z,14.23
2022-10-20T07:46:51.760Z,13.10
2022-10-20T07:52:07.295Z,13.07
2022-10-20T07:54:35.447Z,14.13
2022-10-20T07:57:03.657Z,13.18
2022-10-20T07:59:31.784Z,12.02
2022-10-20T08:02:00.161Z,13.40
2022-10-20T08:04:29.239Z,12.95
2022-10-20T08:06:57.292Z,11.85
2022-10-20T08:09:25.154Z,10.75
2022-10-20T08:11:55.449Z,11.50
2022-10-20T08:14:27.584Z,10.95
2022-10-20T08:16:59.027Z,11.95
2022-10-20T08:22:08.989Z,11.02
2022-10-20T08:24:37.161Z,11.05
2022-10-20T08:27:05.243Z,10.20
2022-10-20T08:29:33.406Z,10.18
2022-10-20T08:32:01.130Z,10.20
2022-10-20T08:34:28.900Z,10.15
2022-10-20T08:36:57.491Z,10.32
2022-10-20T08:39:25.473Z,8.88
2022-10-20T08:42:08.217Z,9.60
2022-10-20T08:44:38.473Z,9.50
2022-10-20T08:47:26.666Z,10.23
2022-10-20T08:49:57.957Z,9.75
2022-10-20T08:52:26.573Z,10.32
2022-10-20T08:54:57.236Z,10.65
2022-10-20T08:57:28.937Z,9.93
2022-10-20T09:00:06.828Z,10.07
2022-10-20T09:02:37.695Z,9.55
2022-10-20T09:05:08.413Z,9.15
2022-10-20T09:07:39.099Z,9.68
2022-10-20T09:10:39.658Z,12.43
2022-10-20T09:13:18.112Z,11.90
2022-10-20T09:15:47.554Z,10.95
2022-10-20T09:18:16.410Z,13.70
2022-10-20T09:20:56.169Z,14.32
2022-10-20T09:23:46.061Z,12.95
2022-10-20T09:26:37.343Z,14.02
2022-10-20T09:29:14.480Z,12.63
2022-10-20T09:31:54.653Z,14.00
2022-10-20T09:34:29.249Z,13.95
2022-10-20T09:37:07.203Z,20.45
2022-10-20T09:39:57.127Z,11.77
2022-10-20T09:42:49.828Z,16.90
2022-10-20T09:45:29.949Z,12.57
2022-10-20T09:48:20.496Z,13.07
2022-10-20T09:50:52.580Z,11.43
2022-10-20T09:53:48.556Z,14.27
2022-10-20T09:56:25.496Z,13.32
2022-10-20T09:58:54.965Z,12.73
2022-10-20T10:01:23.403Z,10.00
2022-10-20T10:03:53.373Z,10.48
2022-10-20T10:06:21.368Z,12.88
2022-10-20T10:08:50.286Z,12.00
2022-10-20T10:11:21.677Z,18.20
2022-10-20T10:13:52.602Z,10.23
2022-10-20T10:16:24.952Z,9.77
2022-10-20T10:19:04.058Z,13.70
2022-10-20T10:21:45.975Z,11.30
2022-10-20T10:24:39.741Z,20.30
2022-10-20T10:27:27.073Z,19.58
2022-10-20T10:29:57.903Z,14.68
2022-10-20T10:32:28.927Z,12.27
2022-10-20T10:35:11.631Z,10.13
2022-10-20T10:37:44.352Z,15.35
2022-10-20T10:40:18.020Z,85.50
2022-10-20T10:43:23.173Z,70.63
2022-10-20T10:45:58.947Z,20.52
2022-10-20T10:48:26.514Z,7.28
2022-10-20T10:50:58.682Z,9.27
2022-10-20T10:53:47.619Z,8.10
2022-10-20T10:56:30.440Z,8.40
2022-10-20T10:59:04.076Z,11.52
2022-10-20T11:01:40.773Z,9.48
2022-10-20T11:04:22.892Z,37.35
2022-10-20T11:07:02.681Z,6.82
2022-10-20T11:09:52.070Z,26.10
2022-10-20T11:12:20.027Z,28.45
2022-10-20T11:15:05.121Z,6.60
2022-10-20T11:18:15.098Z,6.82
2022-10-20T11:21:02.452Z,7.05
2022-10-20T11:24:01.379Z,6.80
2022-10-20T11:26:54.669Z,6.03
2022-10-20T11:29:49.882Z,11.25
2022-10-20T11:32:51.349Z,6.90
2022-10-20T11:35:31.783Z,7.43
2022-10-20T11:38:32.210Z,11.40
2022-10-20T11:41:18.032Z,7.68
2022-10-20T11:44:17.084Z,15.60
2022-10-20T11:46:57.026Z,6.97
2022-10-20T11:49:25.413Z,10.38
2022-10-20T11:52:17.043Z,6.55
2022-10-20T11:55:09.952Z,7.97
2022-10-20T11:57:48.222Z,23.88
2022-10-20T12:00:31.012Z,10.10
2022-10-20T12:03:10.719Z,6.93
2022-10-20T12:06:09.113Z,9.80
2022-10-20T12:08:50.600Z,5.75
2022-10-20T12:11:25.148Z,8.45
2022-10-20T12:14:16.225Z,9.48
2022-10-20T12:16:53.816Z,7.40
2022-10-20T12:19:32.271Z,10.35
2022-10-20T12:22:15.092Z,21.48
2022-10-20T12:24:54.340Z,18.30
2022-10-20T12:27:29.735Z,12.55
2022-10-20T12:30:04.188Z,17.55
2022-10-20T12:32:46.083Z,8.70
2022-10-20T12:35:13.710Z,9.63
2022-10-20T12:37:54.308Z,9.23
2022-10-20T12:40:32.936Z,20.70
2022-10-20T12:43:01.638Z,10.57
2022-10-20T12:45:46.019Z,7.25
2022-10-20T12:48:23.068Z,30.27
2022-10-20T12:50:52.794Z,23.95
2022-10-20T12:53:27.123Z,14.02
2022-10-20T12:56:05.085Z,16.35
2022-10-20T12:59:00.550Z,15.65
2022-10-20T13:01:29.532Z,28.42
2022-10-20T13:03:57.595Z,21.20
2022-10-20T13:06:28.146Z,20.13
2022-10-20T13:09:05.502Z,27.92
2022-10-20T13:11:36.437Z,27.60
2022-10-20T13:14:13.571Z,33.67
2022-10-20T13:17:06.541Z,999.90
2022-10-20T13:19:48.657Z,999.90
2022-10-20T13:22:34.892Z,999.90
2022-10-20T13:25:05.813Z,999.90
2022-10-20T13:27:34.411Z,999.90
2022-10-20T13:30:08.271Z,999.90
2022-10-20T13:36:23.794Z,999.90
2022-10-20T13:39:03.676Z,999.90
2022-10-20T13:41:37.540Z,999.90
2022-10-20T13:44:31.166Z,999.90
2022-10-20T13:47:02.672Z,999.90
2022-10-20T13:49:52.638Z,999.90
2022-10-20T13:52:21.845Z,999.90
2022-10-20T13:54:52.610Z,999.90
2022-10-20T13:57:32.893Z,999.90
2022-10-20T14:00:19.454Z,999.90
2022-10-20T14:03:15.399Z,999.90
2022-10-20T14:05:43.322Z,999.90
2022-10-20T14:08:14.536Z,999.90
2022-10-20T14:10:53.602Z,10.70
2022-10-20T14:13:24.563Z,8.95
2022-10-20T14:15:58.551Z,10.88
2022-10-20T14:18:28.005Z,9.25
2022-10-20T14:20:58.000Z,9.43
2022-10-20T14:23:27.404Z,9.75
2022-10-20T14:25:57.350Z,7.72
2022-10-20T14:28:26.766Z,8.73
2022-10-20T14:30:54.818Z,9.77
2022-10-20T14:33:23.220Z,10.35
2022-10-20T14:35:57.792Z,10.77
2022-10-20T14:38:33.495Z,10.25
2022-10-20T14:41:02.597Z,10.82
2022-10-20T14:43:35.597Z,9.35
2022-10-20T14:46:04.725Z,8.85
2022-10-20T14:48:52.689Z,8.93
2022-10-20T14:51:41.209Z,6.95
2022-10-20T14:54:17.485Z,8.02
2022-10-20T14:56:47.458Z,8.05
2022-10-20T14:59:22.134Z,8.85
2022-10-20T15:02:13.754Z,8.23
2022-10-20T15:04:43.261Z,7.50
2022-10-20T15:07:13.792Z,8.48
2022-10-20T15:12:17.011Z,8.38
2022-10-20T15:14:48.910Z,8.52
2022-10-20T15:17:33.309Z,7.63
2022-10-20T15:20:29.853Z,9.25
2022-10-20T15:23:00.445Z,9.05
2022-10-20T15:25:33.643Z,7.22
2022-10-20T15:28:01.594Z,8.05
2022-10-20T15:30:36.391Z,8.13
2022-10-20T15:33:04.521Z,7.00
2022-10-20T15:35:34.390Z,11.82
2022-10-20T15:38:02.407Z,12.48
2022-10-20T15:40:30.526Z,11.00
2022-10-20T15:42:59.355Z,18.38
2022-10-20T15:45:32.300Z,19.42
2022-10-20T15:48:00.085Z,20.52
2022-10-20T15:50:27.982Z,18.73
2022-10-20T15:52:57.072Z,14.18
2022-10-20T15:55:38.300Z,15.25
2022-10-20T15:58:06.855Z,15.95
2022-10-20T16:00:35.338Z,11.93
2022-10-20T16:03:03.307Z,13.23
2022-10-20T16:05:31.230Z,10.60
2022-10-20T16:07:59.902Z,12.80
2022-10-20T16:10:32.142Z,14.35
2022-10-20T16:12:59.928Z,15.80
2022-10-20T16:15:30.524Z,18.27
2022-10-20T16:17:59.473Z,18.45
2022-10-20T16:20:27.255Z,18.70
2022-10-20T16:22:55.348Z,20.05
2022-10-20T16:25:23.560Z,17.45
2022-10-20T16:27:51.914Z,19.40
2022-10-20T16:30:19.886Z,21.42
2022-10-20T16:32:48.494Z,21.48
2022-10-20T16:35:16.780Z,23.73
2022-10-20T16:37:44.982Z,25.70
2022-10-20T16:40:12.954Z,22.30
2022-10-20T16:42:41.120Z,18.35
2022-10-20T16:45:09.918Z,15.00
2022-10-20T16:47:38.645Z,14.27
2022-10-20T16:50:08.288Z,18.55
2022-10-20T16:52:36.623Z,24.33
2022-10-20T16:55:05.018Z,28.15
2022-10-20T16:57:40.786Z,33.78
2022-10-20T17:00:09.970Z,57.63
2022-10-20T17:02:38.878Z,77.90
2022-10-20T17:05:09.327Z,73.20
2022-10-20T17:07:38.446Z,54.03
2022-10-20T17:10:07.779Z,37.28
2022-10-20T17:12:35.682Z,27.33
2022-10-20T17:15:05.032Z,27.88
2022-10-20T17:17:33.362Z,23.77
2022-10-20T17:20:01.206Z,16.13
2022-10-20T17:22:29.734Z,36.30
2022-10-20T17:24:58.150Z,36.83
2022-10-20T17:27:26.993Z,36.50
2022-10-20T17:29:54.790Z,47.15
2022-10-20T17:32:22.553Z,64.70
2022-10-20T17:34:52.617Z,53.58
2022-10-20T17:37:20.851Z,58.90
2022-10-20T17:39:48.677Z,46.17
2022-10-20T17:42:16.790Z,31.83
2022-10-20T17:44:44.946Z,30.60
2022-10-20T17:47:13.064Z,35.67
2022-10-20T17:49:40.938Z,41.13
2022-10-20T17:52:09.082Z,49.83
2022-10-20T17:54:37.071Z,54.38
2022-10-20T17:57:06.364Z,56.80
2022-10-20T17:59:42.435Z,59.67
2022-10-20T18:02:20.881Z,50.00
2022-10-20T18:04:48.755Z,42.97
2022-10-20T18:07:17.793Z,46.22
2022-10-20T18:09:45.659Z,55.47
2022-10-20T18:12:15.099Z,43.33
2022-10-20T18:14:46.230Z,51.92
2022-10-20T18:17:21.128Z,51.22
2022-10-20T18:19:49.397Z,36.80
2022-10-20T18:22:17.811Z,45.15
2022-10-20T18:24:50.830Z,47.25
2022-10-20T18:27:20.419Z,41.38
2022-10-20T18:29:49.152Z,39.70
2022-10-20T18:32:18.650Z,44.38
2022-10-20T18:34:47.860Z,51.83
2022-10-20T18:37:18.222Z,50.58
2022-10-20T18:39:46.318Z,51.25
2022-10-20T18:42:14.113Z,46.42
2022-10-20T18:44:42.277Z,45.22
2022-10-20T18:47:13.892Z,44.80
2022-10-20T18:49:42.175Z,39.35
2022-10-20T18:52:10.123Z,40.97
2022-10-20T18:54:42.946Z,40.38
2022-10-20T18:57:11.134Z,43.40
2022-10-20T18:59:39.419Z,46.70
2022-10-20T19:02:07.713Z,48.13
2022-10-20T19:04:35.755Z,45.50
2022-10-20T19:07:04.269Z,39.45
2022-10-20T19:09:33.702Z,34.55
2022-10-20T19:12:02.777Z,49.55
2022-10-20T19:14:32.985Z,80.63
2022-10-20T19:17:01.048Z,81.80
2022-10-20T19:19:29.130Z,83.72
2022-10-20T19:21:58.753Z,82.85
2022-10-20T19:24:27.695Z,89.47
2022-10-20T19:29:50.481Z,81.07
2022-10-20T19:32:19.083Z,67.78
2022-10-20T19:34:47.651Z,59.70
2022-10-20T19:37:18.783Z,53.35
2022-10-20T19:39:46.791Z,41.22
2022-10-20T19:42:14.748Z,30.92
2022-10-20T19:44:47.059Z,29.10
2022-10-20T19:47:15.218Z,27.42
2022-10-20T19:49:43.434Z,27.23
2022-10-20T19:52:12.301Z,25.20
2022-10-20T19:54:40.188Z,27.65
2022-10-20T19:57:08.039Z,26.02
2022-10-20T19:59:36.866Z,25.65
2022-10-20T20:02:05.417Z,36.97
2022-10-20T20:04:33.140Z,44.90
2022-10-20T20:07:02.541Z,52.17
2022-10-20T20:09:31.191Z,50.72
2022-10-20T20:12:00.713Z,39.13
2022-10-20T20:14:29.767Z,31.90
2022-10-20T20:16:57.671Z,29.77
2022-10-20T20:19:25.431Z,30.50
2022-10-20T20:21:53.465Z,29.83
2022-10-20T20:24:21.405Z,39.97
2022-10-20T20:26:50.352Z,36.13
2022-10-20T20:29:18.253Z,29.13
2022-10-20T20:31:46.561Z,27.40
2022-10-20T20:34:15.504Z,31.77
2022-10-20T20:36:44.882Z,27.75
2022-10-20T20:39:12.794Z,30.77
2022-10-20T20:41:41.082Z,31.60
2022-10-20T20:44:09.215Z,31.05
2022-10-20T20:46:37.330Z,35.10
2022-10-20T20:49:05.899Z,39.15
2022-10-20T20:51:34.346Z,36.03
2022-10-20T20:54:03.107Z,36.55
2022-10-20T20:56:31.283Z,34.78
2022-10-20T20:58:59.185Z,31.95
2022-10-20T21:01:31.664Z,26.40
2022-10-20T21:04:03.049Z,23.75
2022-10-20T21:07:00.105Z,21.42
2022-10-20T21:09:19.751Z,20.65
2022-10-20T21:11:48.909Z,28.75
2022-10-20T21:14:16.769Z,24.52
2022-10-20T21:16:44.761Z,28.75
2022-10-20T21:19:12.764Z,29.48
2022-10-20T21:21:50.991Z,27.60
2022-10-20T21:24:19.947Z,31.33
2022-10-20T21:26:49.209Z,28.60
2022-10-20T21:29:17.965Z,27.63
2022-10-20T21:31:47.277Z,26.80
2022-10-20T21:34:15.463Z,23.48
2022-10-20T21:36:43.546Z,22.58
2022-10-20T21:39:16.318Z,25.30
2022-10-20T21:41:45.299Z,27.23
2022-10-20T21:44:15.099Z,24.55
2022-10-20T21:46:47.858Z,23.80
2022-10-20T21:49:19.074Z,23.02
2022-10-20T21:51:52.985Z,20.60
2022-10-20T21:54:23.486Z,27.25
2022-10-20T21:56:52.626Z,25.17
2022-10-20T21:59:26.588Z,25.63
2022-10-20T22:01:57.572Z,24.55
2022-10-20T22:04:27.510Z,28.85
2022-10-20T22:06:56.080Z,26.63
2022-10-20T22:09:23.894Z,29.25
2022-10-20T22:11:55.586Z,24.10
2022-10-20T22:14:24.009Z,26.90
2022-10-20T22:16:51.788Z,24.23
2022-10-20T22:19:21.645Z,22.38
2022-10-20T22:21:51.456Z,19.23
2022-10-20T22:24:20.656Z,23.52
2022-10-20T22:26:51.077Z,27.40
2022-10-20T22:29:20.795Z,25.52
2022-10-20T22:31:49.543Z,23.58
2022-10-20T22:34:17.306Z,21.27
2022-10-20T22:36:45.879Z,23.17
2022-10-20T22:39:15.469Z,21.85
2022-10-20T22:41:43.684Z,24.38
2022-10-20T22:44:11.879Z,24.83
2022-10-20T22:46:39.576Z,23.58
2022-10-20T22:49:07.290Z,23.55
2022-10-20T22:51:34.976Z,23.73
2022-10-20T22:54:03.225Z,24.08
2022-10-20T22:56:31.149Z,23.75
2022-10-20T22:58:58.871Z,20.98
2022-10-20T23:01:26.655Z,23.80
2022-10-20T23:03:54.357Z,19.83
2022-10-20T23:06:24.421Z,21.17
2022-10-20T23:08:56.618Z,20.30
2022-10-20T23:11:24.659Z,21.80
2022-10-20T23:13:53.465Z,22.20
2022-10-20T23:16:21.770Z,24.48
2022-10-20T23:18:49.355Z,20.98
2022-10-20T23:21:18.700Z,23.83
2022-10-20T23:23:46.911Z,22.05
2022-10-20T23:26:14.917Z,25.30
2022-10-20T23:28:43.188Z,25.58
2022-10-20T23:31:13.663Z,19.58
2022-10-20T23:33:43.440Z,21.35
2022-10-20T23:36:13.174Z,21.65
2022-10-20T23:38:42.043Z,21.77
2022-10-20T23:41:10.391Z,19.77
2022-10-20T23:43:38.410Z,20.52
2022-10-20T23:46:06.728Z,20.38
2022-10-20T23:48:34.670Z,18.00
2022-10-20T23:51:02.796Z,19.75
2022-10-20T23:53:31.178Z,20.48
2022-10-20T23:55:58.712Z,18.42
2022-10-20T23:58:26.774Z,19.85
